createdAt,value
2022-11-14T00:00:52.351Z,25.42
2022-11-14T00:03:45.644Z,25.02
2022-11-14T00:06:35.030Z,24.85
2022-11-14T00:09:36.959Z,25.17
2022-11-14T00:12:27.211Z,26.95
2022-11-14T00:15:18.440Z,25.95
2022-11-14T00:18:08.856Z,26.42
2022-11-14T00:20:56.976Z,28.08
2022-11-14T00:23:47.538Z,26.65
2022-11-14T00:26:38.554Z,27.13
2022-11-14T00:29:31.215Z,27.27
2022-11-14T00:32:25.222Z,27.13
2022-11-14T00:35:15.101Z,39.97
2022-11-14T00:38:04.243Z,26.98
2022-11-14T00:40:54.295Z,39.92
2022-11-14T00:43:44.052Z,45.05
2022-11-14T00:46:39.137Z,40.38
2022-11-14T00:49:34.137Z,56.30
2022-11-14T00:55:11.289Z,28.55
2022-11-14T00:57:57.970Z,27.17
2022-11-14T01:00:48.948Z,27.35
2022-11-14T01:03:39.348Z,25.48
2022-11-14T01:06:28.825Z,28.75
2022-11-14T01:09:19.424Z,26.73
2022-11-14T01:12:09.028Z,26.98
2022-11-14T01:14:56.103Z,31.05
2022-11-14T01:17:47.145Z,28.30
2022-11-14T01:23:59.109Z,29.13
2022-11-14T01:26:47.371Z,29.35
2022-11-14T01:29:40.575Z,28.48
2022-11-14T01:32:31.661Z,28.23
2022-11-14T01:35:21.456Z,27.23
2022-11-14T01:38:16.831Z,28.55
2022-11-14T01:41:10.077Z,27.63
2022-11-14T01:43:57.030Z,27.50
2022-11-14T01:47:00.224Z,29.05
2022-11-14T01:49:51.271Z,29.23
2022-11-14T01:52:43.475Z,26.88
2022-11-14T01:55:38.051Z,24.98
2022-11-14T01:58:30.665Z,25.27
2022-11-14T02:04:36.730Z,27.20
2022-11-14T02:07:31.957Z,27.60
2022-11-14T02:10:23.902Z,26.52
2022-11-14T02:13:19.960Z,28.85
2022-11-14T02:16:08.813Z,27.40
2022-11-14T02:18:59.436Z,27.58
2022-11-14T02:21:47.715Z,27.30
2022-11-14T02:24:40.568Z,29.10
2022-11-14T02:27:35.817Z,31.23
2022-11-14T02:30:28.189Z,28.85
2022-11-14T02:33:19.847Z,28.40
2022-11-14T02:36:16.738Z,26.92
2022-11-14T02:39:06.588Z,27.92
2022-11-14T02:41:58.315Z,24.88
2022-11-14T02:44:47.233Z,27.13
2022-11-14T02:47:38.802Z,25.02
2022-11-14T02:50:30.047Z,26.75
2022-11-14T02:53:19.110Z,27.52
2022-11-14T02:56:11.095Z,28.35
2022-11-14T02:59:02.580Z,29.67
2022-11-14T03:01:51.860Z,28.90
2022-11-14T03:04:43.655Z,29.02
2022-11-14T03:07:35.564Z,30.10
2022-11-14T03:10:24.388Z,32.20
2022-11-14T03:13:18.506Z,31.73
2022-11-14T03:16:13.046Z,34.05
2022-11-14T03:19:02.415Z,33.47
2022-11-14T03:21:52.353Z,33.47
2022-11-14T03:24:41.249Z,31.90
2022-11-14T03:27:27.909Z,33.53
2022-11-14T03:30:17.982Z,35.83
2022-11-14T03:33:10.875Z,36.72
2022-11-14T03:36:00.311Z,37.10
2022-11-14T03:38:50.680Z,36.67
2022-11-14T03:41:45.773Z,36.95
2022-11-14T03:44:36.231Z,37.70
2022-11-14T03:47:24.151Z,36.58
2022-11-14T03:50:12.328Z,37.17
2022-11-14T03:53:01.759Z,35.83
2022-11-14T03:55:50.507Z,36.72
2022-11-14T03:58:41.937Z,41.63
2022-11-14T04:01:31.472Z,40.58
2022-11-14T04:04:22.390Z,40.35
2022-11-14T04:07:12.222Z,40.15
2022-11-14T04:10:01.716Z,41.28
2022-11-14T04:12:55.934Z,40.92
2022-11-14T04:18:48.636Z,41.80
2022-11-14T04:21:36.676Z,42.55
2022-11-14T04:24:23.941Z,42.75
2022-11-14T04:27:12.669Z,42.83
2022-11-14T04:30:02.421Z,44.38
2022-11-14T04:32:51.594Z,42.38
2022-11-14T04:35:41.635Z,41.33
2022-11-14T04:38:28.730Z,38.63
2022-11-14T04:41:17.744Z,38.78
2022-11-14T04:44:07.346Z,37.60
2022-11-14T04:46:57.411Z,36.80
2022-11-14T04:49:49.776Z,38.20
2022-11-14T04:52:38.617Z,35.80
2022-11-14T04:55:29.839Z,36.22
2022-11-14T04:58:18.904Z,36.70
2022-11-14T05:01:17.337Z,38.90
2022-11-14T05:04:05.214Z,38.33
2022-11-14T05:06:55.840Z,38.22
2022-11-14T05:09:45.099Z,40.10
2022-11-14T05:12:34.618Z,40.97
2022-11-14T05:15:24.644Z,39.08
2022-11-14T05:18:16.878Z,39.17
2022-11-14T05:21:04.771Z,38.40
2022-11-14T05:23:52.007Z,37.58
2022-11-14T05:26:42.634Z,39.83
2022-11-14T05:29:29.002Z,39.58
2022-11-14T05:32:22.515Z,39.42
2022-11-14T05:35:10.575Z,40.83
2022-11-14T05:38:04.799Z,41.53
2022-11-14T05:40:55.562Z,42.33
2022-11-14T05:43:46.051Z,39.60
2022-11-14T05:46:35.268Z,39.40
2022-11-14T05:49:24.668Z,39.80
2022-11-14T05:52:12.342Z,40.45
2022-11-14T05:55:03.962Z,38.05
2022-11-14T05:57:51.156Z,38.15
2022-11-14T06:00:50.755Z,39.20
2022-11-14T06:03:47.262Z,54.20
2022-11-14T06:06:34.116Z,57.67
2022-11-14T06:09:24.479Z,57.92
2022-11-14T06:12:13.411Z,52.05
2022-11-14T06:15:05.206Z,49.03
2022-11-14T06:18:04.866Z,51.30
2022-11-14T06:20:55.398Z,51.00
2022-11-14T06:23:44.583Z,47.10
2022-11-14T06:26:38.160Z,42.67
2022-11-14T06:29:32.645Z,42.33
2022-11-14T06:32:27.503Z,42.20
2022-11-14T06:35:18.258Z,44.63
2022-11-14T06:38:07.892Z,46.40
2022-11-14T06:41:18.168Z,47.25
2022-11-14T06:44:08.867Z,45.58
2022-11-14T06:46:59.394Z,47.05
2022-11-14T06:49:50.420Z,49.38
2022-11-14T06:52:37.642Z,47.17
2022-11-14T06:55:27.870Z,43.63
2022-11-14T06:58:38.774Z,43.65
2022-11-14T07:01:27.689Z,43.97
2022-11-14T07:04:15.471Z,44.88
2022-11-14T07:07:05.645Z,45.35
2022-11-14T07:09:55.365Z,47.47
2022-11-14T07:12:44.670Z,45.05
2022-11-14T07:15:35.463Z,45.75
2022-11-14T07:18:23.064Z,45.97
2022-11-14T07:21:13.905Z,44.65
2022-11-14T07:24:03.842Z,47.85
2022-11-14T07:26:50.882Z,48.40
2022-11-14T07:29:40.995Z,48.50
2022-11-14T07:32:28.132Z,51.53
2022-11-14T07:35:45.632Z,54.35
2022-11-14T07:38:35.728Z,52.78
2022-11-14T07:41:25.817Z,52.13
2022-11-14T07:44:13.447Z,54.28
2022-11-14T07:47:01.581Z,54.50
2022-11-14T07:49:51.941Z,54.03
2022-11-14T07:52:41.510Z,51.53
2022-11-14T07:55:30.575Z,53.53
2022-11-14T07:58:20.648Z,52.75
2022-11-14T08:01:12.317Z,51.80
2022-11-14T08:04:00.074Z,47.65
2022-11-14T08:06:49.808Z,55.03
2022-11-14T08:09:40.950Z,48.85
2022-11-14T08:12:31.355Z,46.15
2022-11-14T08:18:23.689Z,46.33
2022-11-14T08:21:14.996Z,47.30
2022-11-14T08:24:04.563Z,47.08
2022-11-14T08:26:54.219Z,46.60
2022-11-14T08:29:42.558Z,47.65
2022-11-14T08:32:33.730Z,50.10
2022-11-14T08:35:24.953Z,46.53
2022-11-14T08:38:12.994Z,49.70
2022-11-14T08:41:04.205Z,47.45
2022-11-14T08:43:53.907Z,48.03
2022-11-14T08:49:48.751Z,50.90
2022-11-14T08:52:36.567Z,47.78
2022-11-14T08:55:27.383Z,50.03
2022-11-14T08:58:14.855Z,48.63
2022-11-14T09:01:08.219Z,47.08
2022-11-14T09:04:00.006Z,47.65
2022-11-14T09:06:50.623Z,46.88
2022-11-14T09:09:42.829Z,49.13
2022-11-14T09:12:31.568Z,51.00
2022-11-14T09:15:22.564Z,49.35
2022-11-14T09:18:13.702Z,48.53
2022-11-14T09:21:09.353Z,46.65
2022-11-14T09:24:01.883Z,46.67
2022-11-14T09:26:57.152Z,47.67
2022-11-14T09:29:44.845Z,48.25
2022-11-14T09:32:37.862Z,48.63
2022-11-14T09:35:26.840Z,49.67
2022-11-14T09:38:15.660Z,48.28
2022-11-14T09:41:36.167Z,50.25
2022-11-14T09:44:58.392Z,50.17
2022-11-14T09:48:10.233Z,48.95
2022-11-14T09:51:23.780Z,48.13
2022-11-14T09:54:27.894Z,47.95
2022-11-14T09:57:18.790Z,47.33
2022-11-14T10:00:25.122Z,50.05
2022-11-14T10:03:30.322Z,50.65
2022-11-14T10:06:36.439Z,50.78
2022-11-14T10:09:34.865Z,51.40
2022-11-14T10:12:36.483Z,49.63
2022-11-14T10:16:00.951Z,48.40
2022-11-14T10:19:02.402Z,51.50
2022-11-14T10:22:23.274Z,49.10
2022-11-14T10:25:42.626Z,50.85
2022-11-14T10:29:13.240Z,53.67
2022-11-14T10:33:00.406Z,50.65
2022-11-14T10:36:05.341Z,52.13
2022-11-14T10:39:08.310Z,51.80
2022-11-14T10:42:09.570Z,52.55
2022-11-14T10:45:26.009Z,51.97
2022-11-14T10:48:31.873Z,50.85
2022-11-14T10:51:46.773Z,47.75
2022-11-14T10:54:53.183Z,48.92
2022-11-14T10:57:40.703Z,49.10
2022-11-14T11:00:27.489Z,49.33
2022-11-14T11:03:17.578Z,47.28
2022-11-14T11:06:27.955Z,46.05
2022-11-14T11:09:53.158Z,47.80
2022-11-14T11:12:55.648Z,45.97
2022-11-14T11:15:44.697Z,48.38
2022-11-14T11:18:39.662Z,46.67
2022-11-14T11:21:29.011Z,46.17
2022-11-14T11:24:40.540Z,43.65
2022-11-14T11:27:31.789Z,43.95
2022-11-14T11:30:23.513Z,43.75
2022-11-14T11:33:30.967Z,41.72
2022-11-14T11:36:23.274Z,41.58
2022-11-14T11:39:27.598Z,40.88
2022-11-14T11:43:23.816Z,42.17
2022-11-14T11:45:54.085Z,39.22
2022-11-14T11:48:47.448Z,37.30
2022-11-14T11:51:46.892Z,36.15
2022-11-14T11:54:54.662Z,35.45
2022-11-14T11:58:07.947Z,34.30
2022-11-14T12:00:57.940Z,33.15
2022-11-14T12:03:50.570Z,31.27
2022-11-14T12:07:03.740Z,51.35
2022-11-14T12:10:11.400Z,34.17
2022-11-14T12:13:37.155Z,27.70
2022-11-14T12:16:49.042Z,40.28
2022-11-14T12:19:59.332Z,28.35
2022-11-14T12:23:07.712Z,27.88
2022-11-14T12:26:14.617Z,27.13
2022-11-14T12:29:29.282Z,27.38
2022-11-14T12:32:35.390Z,24.65
2022-11-14T12:35:34.559Z,24.83
2022-11-14T12:38:25.583Z,22.23
2022-11-14T12:41:19.193Z,22.73
2022-11-14T12:44:33.193Z,22.80
2022-11-14T12:47:27.770Z,22.00
2022-11-14T12:50:51.620Z,18.45
2022-11-14T12:53:45.618Z,15.45
2022-11-14T12:56:37.896Z,14.55
2022-11-14T12:59:59.055Z,14.38
2022-11-14T13:03:06.545Z,14.35
2022-11-14T13:06:31.422Z,12.95
2022-11-14T13:09:54.073Z,13.45
2022-11-14T13:13:27.225Z,12.23
2022-11-14T13:16:48.554Z,11.82
2022-11-14T13:19:55.227Z,12.38
2022-11-14T13:22:49.655Z,11.52
2022-11-14T13:28:38.652Z,11.20
2022-11-14T13:31:47.943Z,11.02
2022-11-14T13:34:49.364Z,10.82
2022-11-14T13:38:08.670Z,11.07
2022-11-14T13:41:48.354Z,11.50
2022-11-14T13:44:53.688Z,11.00
2022-11-14T13:48:12.700Z,11.18
2022-11-14T13:51:41.222Z,11.43
2022-11-14T13:54:21.444Z,12.25
2022-11-14T13:57:34.007Z,12.90
2022-11-14T14:00:25.003Z,17.10
2022-11-14T14:03:46.214Z,13.63
2022-11-14T14:07:16.659Z,13.90
2022-11-14T14:10:20.102Z,11.95
2022-11-14T14:13:29.738Z,11.85
2022-11-14T14:16:36.280Z,12.63
2022-11-14T14:19:32.757Z,11.45
2022-11-14T14:22:31.294Z,11.30
2022-11-14T14:25:42.376Z,11.50
2022-11-14T14:29:26.937Z,13.60
2022-11-14T14:32:18.095Z,12.32
2022-11-14T14:35:31.871Z,12.90
2022-11-14T14:38:28.313Z,13.88
2022-11-14T14:41:22.076Z,15.82
2022-11-14T14:44:36.039Z,14.98
2022-11-14T14:47:43.589Z,15.33
2022-11-14T14:50:46.992Z,14.82
2022-11-14T14:53:36.722Z,15.35
2022-11-14T14:56:29.055Z,13.80
2022-11-14T14:59:20.706Z,15.05
2022-11-14T15:02:17.444Z,16.77
2022-11-14T15:05:09.448Z,17.48
2022-11-14T15:08:00.726Z,17.75
2022-11-14T15:10:50.144Z,16.42
2022-11-14T15:13:38.889Z,17.08
2022-11-14T15:16:53.243Z,16.50
2022-11-14T15:19:43.355Z,16.27
2022-11-14T15:22:35.131Z,18.23
2022-11-14T15:25:23.159Z,16.67
2022-11-14T15:28:25.443Z,17.88
2022-11-14T15:31:35.955Z,16.73
2022-11-14T15:34:42.801Z,17.05
2022-11-14T15:40:41.116Z,18.42
2022-11-14T15:44:09.678Z,16.85
2022-11-14T15:47:00.235Z,18.80
2022-11-14T15:50:15.590Z,17.52
2022-11-14T15:53:26.533Z,18.23
2022-11-14T15:56:17.135Z,17.85
2022-11-14T15:59:11.133Z,17.73
2022-11-14T16:02:12.940Z,17.10
2022-11-14T16:05:00.992Z,18.05
2022-11-14T16:07:47.741Z,17.92
2022-11-14T16:10:34.967Z,18.08
2022-11-14T16:13:24.415Z,18.33
2022-11-14T16:16:14.568Z,18.45
2022-11-14T16:19:03.163Z,17.90
2022-11-14T16:21:55.356Z,19.33
2022-11-14T16:24:46.238Z,19.17
2022-11-14T16:27:33.795Z,19.30
2022-11-14T16:30:24.402Z,19.38
2022-11-14T16:33:13.255Z,19.52
2022-11-14T16:35:59.780Z,20.73
2022-11-14T16:38:52.566Z,22.48
2022-11-14T16:41:46.730Z,21.90
2022-11-14T16:44:41.167Z,20.80
2022-11-14T16:47:36.390Z,19.83
2022-11-14T16:50:27.439Z,20.60
2022-11-14T16:53:15.028Z,18.55
2022-11-14T16:56:04.914Z,19.50
2022-11-14T16:58:59.378Z,19.58
2022-11-14T17:02:10.186Z,21.42
2022-11-14T17:05:00.190Z,19.73
2022-11-14T17:07:49.132Z,18.77
2022-11-14T17:10:42.061Z,19.23
2022-11-14T17:13:32.704Z,20.00
2022-11-14T17:16:27.744Z,22.02
2022-11-14T17:19:19.484Z,19.35
2022-11-14T17:22:09.494Z,18.50
2022-11-14T17:24:58.393Z,18.20
2022-11-14T17:27:54.245Z,20.23
2022-11-14T17:30:42.621Z,19.25
2022-11-14T17:33:33.344Z,24.88
2022-11-14T17:36:33.899Z,20.75
2022-11-14T17:39:25.606Z,20.23
2022-11-14T17:42:14.663Z,20.50
2022-11-14T17:45:02.023Z,20.90
2022-11-14T17:47:51.763Z,20.45
2022-11-14T17:50:44.383Z,19.58
2022-11-14T17:53:34.760Z,20.08
2022-11-14T17:56:28.184Z,20.10
2022-11-14T17:59:15.475Z,20.83
2022-11-14T18:02:04.542Z,19.77
2022-11-14T18:04:53.955Z,20.50
2022-11-14T18:07:41.891Z,22.80
2022-11-14T18:10:32.566Z,23.42
2022-11-14T18:13:24.461Z,23.67
2022-11-14T18:16:19.920Z,21.60
2022-11-14T18:19:06.673Z,21.65
2022-11-14T18:22:15.104Z,20.70
2022-11-14T18:25:07.885Z,23.17
2022-11-14T18:27:55.892Z,24.67
2022-11-14T18:30:55.037Z,25.33
2022-11-14T18:33:44.908Z,23.52
2022-11-14T18:36:34.435Z,22.95
2022-11-14T18:39:22.403Z,23.45
2022-11-14T18:42:12.319Z,25.27
2022-11-14T18:44:58.981Z,26.10
2022-11-14T18:47:47.362Z,25.90
2022-11-14T18:50:39.656Z,26.45
2022-11-14T18:53:36.108Z,26.80
2022-11-14T18:56:28.557Z,24.45
2022-11-14T18:59:20.644Z,26.45
2022-11-14T19:02:09.314Z,24.88
2022-11-14T19:04:59.712Z,25.75
2022-11-14T19:07:52.181Z,24.98
2022-11-14T19:10:39.015Z,25.75
2022-11-14T19:13:31.213Z,25.52
2022-11-14T19:16:19.513Z,24.63
2022-11-14T19:19:11.086Z,25.40
2022-11-14T19:22:00.626Z,24.83
2022-11-14T19:24:49.837Z,28.05
2022-11-14T19:27:43.425Z,25.00
2022-11-14T19:30:34.241Z,25.13
2022-11-14T19:33:23.732Z,24.10
2022-11-14T19:36:57.636Z,28.55
2022-11-14T19:39:35.172Z,27.40
2022-11-14T19:45:27.239Z,28.90
2022-11-14T19:48:20.524Z,27.98
2022-11-14T19:51:22.919Z,24.92
2022-11-14T19:57:15.677Z,24.70
2022-11-14T20:00:07.740Z,25.08
2022-11-14T20:02:57.491Z,26.90
2022-11-14T20:05:58.515Z,27.52
2022-11-14T20:08:49.848Z,24.98
2022-11-14T20:11:39.882Z,24.83
2022-11-14T20:14:28.334Z,25.13
2022-11-14T20:17:21.705Z,23.17
2022-11-14T20:20:12.154Z,23.85
2022-11-14T20:23:01.404Z,20.83
2022-11-14T20:25:55.380Z,22.63
2022-11-14T20:28:47.923Z,25.83
2022-11-14T20:31:37.371Z,22.95
2022-11-14T20:34:27.102Z,23.13
2022-11-14T20:37:14.282Z,22.15
2022-11-14T20:40:05.585Z,23.05
2022-11-14T20:42:54.538Z,21.27
2022-11-14T20:45:44.967Z,22.80
2022-11-14T20:48:36.221Z,29.95
2022-11-14T20:54:29.549Z,20.52
2022-11-14T20:57:17.654Z,27.20
2022-11-14T21:00:12.298Z,27.00
2022-11-14T21:03:03.184Z,23.00
2022-11-14T21:05:56.615Z,24.10
2022-11-14T21:08:46.734Z,18.95
2022-11-14T21:11:36.133Z,20.35
2022-11-14T21:14:25.766Z,19.60
2022-11-14T21:17:13.072Z,19.80
2022-11-14T21:20:03.602Z,17.67
2022-11-14T21:22:56.365Z,19.70
2022-11-14T21:25:43.775Z,15.73
2022-11-14T21:28:32.936Z,15.50
2022-11-14T21:31:36.151Z,17.23
2022-11-14T21:34:25.700Z,19.33
2022-11-14T21:37:15.392Z,16.75
2022-11-14T21:40:04.988Z,17.35
2022-11-14T21:42:59.691Z,17.80
2022-11-14T21:46:15.028Z,17.27
2022-11-14T21:49:08.749Z,16.17
2022-11-14T21:51:59.911Z,15.25
2022-11-14T21:54:54.750Z,18.35
2022-11-14T21:57:43.482Z,15.45
2022-11-14T22:00:38.909Z,17.23
2022-11-14T22:03:46.744Z,16.92
2022-11-14T22:06:36.828Z,15.07
2022-11-14T22:09:31.151Z,20.92
2022-11-14T22:12:20.016Z,16.55
2022-11-14T22:15:10.261Z,15.57
2022-11-14T22:17:57.414Z,16.65
2022-11-14T22:20:58.970Z,17.63
2022-11-14T22:23:54.026Z,14.70
2022-11-14T22:26:44.699Z,15.85
2022-11-14T22:29:33.291Z,17.00
2022-11-14T22:32:24.911Z,19.17
2022-11-14T22:35:15.714Z,16.15
2022-11-14T22:38:02.198Z,16.58
2022-11-14T22:40:52.878Z,17.02
2022-11-14T22:43:41.567Z,16.42
2022-11-14T22:46:50.991Z,18.98
2022-11-14T22:49:41.598Z,16.67
2022-11-14T22:52:33.765Z,20.77
2022-11-14T22:55:24.572Z,18.88
2022-11-14T22:58:21.446Z,16.67
2022-11-14T23:01:13.427Z,18.95
2022-11-14T23:04:06.590Z,21.52
2022-11-14T23:06:58.486Z,17.20
2022-11-14T23:09:46.892Z,20.90
2022-11-14T23:12:35.375Z,19.08
2022-11-14T23:15:26.595Z,26.83
2022-11-14T23:18:15.780Z,18.83
2022-11-14T23:21:13.278Z,21.52
2022-11-14T23:24:06.558Z,22.83
2022-11-14T23:26:56.994Z,21.33
2022-11-14T23:29:45.252Z,19.23
2022-11-14T23:32:36.159Z,20.95
2022-11-14T23:35:26.675Z,20.75
2022-11-14T23:38:17.219Z,21.00
2022-11-14T23:41:08.986Z,21.23
2022-11-14T23:43:59.480Z,21.42
2022-11-14T23:46:49.034Z,22.38
2022-11-14T23:49:38.649Z,23.23
2022-11-14T23:52:31.007Z,22.20
2022-11-14T23:55:21.430Z,22.85
2022-11-14T23:58:11.853Z,21.30
